| time (UTC) | temp C | wind direction | speed KPH | gust KPH | rain 1hr cm | rain 24hr cm | rain mn cm | humidity % | barometer mb |
| 20260504081559 | 10 | 183 | 4.8 | 9.7 | 0.00 | 0.00 | 0.00 | 44 | 1005.6 |
| 20260504044539 | 11 | 319 | 0.0 | 1.6 | 0.00 | 0.00 | 0.00 | 39 | 1007.5 |
| 20260504043030 | 11 | 319 | 0.0 | 4.8 | 0.00 | 0.00 | 0.00 | 40 | 1007.6 |
| 20260504041531 | 11 | 323 | 3.2 | 8.0 | 0.00 | 0.00 | 0.00 | 45 | 1007.7 |
| 20260504040027 | 12 | 223 | 1.6 | 3.2 | 0.00 | 0.00 | 0.00 | 42 | 1007.9 |
| 20260504034526 | 12 | 223 | 0.0 | 0.0 | 0.00 | 0.00 | 0.00 | 39 | 1008.0 |
| 20260504033026 | 13 | 223 | 3.2 | 6.4 | 0.00 | 0.00 | 0.00 | 35 | 1008.2 |
| 20260504031525 | 13 | 265 | 0.0 | 1.6 | 0.00 | 0.00 | 0.00 | 32 | 1008.3 |
| 20260504030036 | 14 | 265 | 0.0 | 0.0 | 0.00 | 0.00 | 0.00 | 28 | 1008.4 |
| 20260504024524 | 15 | 265 | 0.0 | 0.0 | 0.00 | 0.00 | 0.00 | 28 | 1008.3 |
| 20260504023024 | 16 | 265 | 1.6 | 3.2 | 0.00 | 0.00 | 0.00 | 25 | 1008.1 |
| 20260504021528 | 16 | 265 | 1.6 | 4.8 | 0.00 | 0.00 | 0.00 | 24 | 1008.0 |
| 20260504020022 | 17 | 264 | 3.2 | 6.4 | 0.00 | 0.00 | 0.00 | 24 | 1008.0 |
| 20260504014522 | 17 | 263 | 3.2 | 9.7 | 0.00 | 0.00 | 0.00 | 25 | 1008.1 |
| 20260504013022 | 17 | 263 | 3.2 | 6.4 | 0.00 | 0.00 | 0.00 | 24 | 1008.3 |
| 20260504011522 | 18 | 272 | 1.6 | 6.4 | 0.00 | 0.00 | 0.00 | 22 | 1008.4 |
| 20260504010121 | 18 | 274 | 3.2 | 6.4 | 0.00 | 0.00 | 0.00 | 22 | 1008.3 |
| 20260504004522 | 20 | 280 | 6.4 | 12.9 | 0.00 | 0.00 | 0.00 | 21 | 1008.3 |
| 20260504003019 | 20 | 265 | 3.2 | 16.1 | 0.00 | 0.00 | 0.00 | 20 | 1008.3 |
| 20260504001518 | 21 | 275 | 12.9 | 20.9 | 0.00 | 0.00 | 0.00 | 18 | 1008.2 |
| 20260504000018 | 21 | 272 | 14.5 | 24.1 | 0.00 | 0.00 | 0.00 | 18 | 1008.1 |
| 20260503234527 | 21 | 286 | 16.1 | 25.7 | 0.00 | 0.00 | 0.00 | 17 | 1008.1 |
| 20260503233017 | 21 | 279 | 14.5 | 27.4 | 0.00 | 0.00 | 0.00 | 18 | 1008.0 |
| 20260503231516 | 22 | 293 | 20.9 | 29.0 | 0.00 | 0.00 | 0.00 | 17 | 1008.1 |
| 20260503230016 | 22 | 287 | 17.7 | 29.0 | 0.00 | 0.00 | 0.00 | 17 | 1008.1 |
| 20260503224515 | 22 | 288 | 14.5 | 25.7 | 0.00 | 0.00 | 0.00 | 18 | 1008.1 |
| 20260503223014 | 22 | 297 | 12.9 | 29.0 | 0.00 | 0.00 | 0.00 | 21 | 1008.1 |
| 20260503221514 | 22 | 279 | 17.7 | 33.8 | 0.00 | 0.00 | 0.00 | 20 | 1008.0 |
| 20260503220034 | 22 | 300 | 22.5 | 32.2 | 0.00 | 0.00 | 0.00 | 17 | 1008.2 |
| 20260503214512 | 22 | 282 | 19.3 | 27.4 | 0.00 | 0.00 | 0.00 | 16 | 1008.2 |
| 20260503213013 | 22 | 269 | 16.1 | 30.6 | 0.00 | 0.00 | 0.00 | 18 | 1008.1 |
| 20260503211511 | 22 | 304 | 17.7 | 29.0 | 0.00 | 0.00 | 0.00 | 18 | 1008.1 |
| 20260503210010 | 22 | 290 | 24.1 | 38.6 | 0.00 | 0.00 | 0.00 | 15 | 1008.3 |
| 20260503204507 | 22 | 333 | 16.1 | 27.4 | 0.00 | 0.00 | 0.00 | 19 | 1008.5 |
| 20260503203015 | 22 | 270 | 22.5 | 32.2 | 0.00 | 0.00 | 0.00 | 17 | 1008.6 |
| 20260503201506 | 22 | 297 | 17.7 | 35.4 | 0.00 | 0.00 | 0.00 | 22 | 1008.8 |
| 20260503200004 | 22 | 300 | 20.9 | 33.8 | 0.00 | 0.00 | 0.00 | 20 | 1008.8 |
| 20260503194502 | 22 | 308 | 19.3 | 32.2 | 0.00 | 0.00 | 0.00 | 21 | 1008.9 |
| 20260503193111 | 22 | 311 | 22.5 | 30.6 | 0.00 | 0.00 | 0.00 | 21 | 1009.0 |
| 20260503191607 | 22 | 288 | 22.5 | 40.2 | 0.00 | 0.00 | 0.00 | 21 | 1009.1 |
| 20260503190101 | 22 | 316 | 20.9 | 38.6 | 0.00 | 0.00 | 0.00 | 21 | 1009.1 |
| 20260503184607 | 22 | 272 | 22.5 | 37.0 | 0.00 | 0.00 | 0.00 | 21 | 1009.1 |
| 20260503183106 | 21 | 307 | 20.9 | 33.8 | 0.00 | 0.00 | 0.00 | 25 | 1009.2 |
| 20260503181601 | 21 | 303 | 24.1 | 43.5 | 0.00 | 0.00 | 0.00 | 26 | 1009.3 |
| 20260503180049 | 21 | 319 | 24.1 | 38.6 | 0.00 | 0.00 | 0.00 | 25 | 1009.3 |
| 20260503174547 | 21 | 311 | 24.1 | 40.2 | 0.00 | 0.00 | 0.00 | 25 | 1009.3 |
| 20260503173056 | 21 | 304 | 27.4 | 35.4 | 0.00 | 0.00 | 0.00 | 27 | 1009.3 |
| 20260503171541 | 20 | 289 | 22.5 | 30.6 | 0.00 | 0.00 | 0.00 | 27 | 1009.7 |